sensor_id;sensor_type;location;lat;lon;timestamp;P1;durP1;ratioP1;P2;durP2;ratioP2
24030;SDS011;12240;51.142;22.486;2023-06-04T00:00:15;7.60;;;3.60;;
24030;SDS011;12240;51.142;22.486;2023-06-04T00:02:44;9.20;;;3.75;;
24030;SDS011;12240;51.142;22.486;2023-06-04T00:05:12;11.63;;;4.00;;
24030;SDS011;12240;51.142;22.486;2023-06-04T00:07:40;11.05;;;3.83;;
24030;SDS011;12240;51.142;22.486;2023-06-04T00:10:08;11.82;;;3.97;;
24030;SDS011;12240;51.142;22.486;2023-06-04T00:12:38;8.52;;;3.65;;
24030;SDS011;12240;51.142;22.486;2023-06-04T00:15:07;10.20;;;3.55;;
24030;SDS011;12240;51.142;22.486;2023-06-04T00:17:35;9.38;;;3.92;;
24030;SDS011;12240;51.142;22.486;2023-06-04T00:20:03;12.00;;;3.67;;
24030;SDS011;12240;51.142;22.486;2023-06-04T00:22:32;7.28;;;3.25;;
24030;SDS011;12240;51.142;22.486;2023-06-04T00:25:00;8.82;;;3.88;;
24030;SDS011;12240;51.142;22.486;2023-06-04T00:27:29;9.00;;;3.72;;
24030;SDS011;12240;51.142;22.486;2023-06-04T00:29:57;11.85;;;4.03;;
24030;SDS011;12240;51.142;22.486;2023-06-04T00:32:25;8.60;;;3.47;;
24030;SDS011;12240;51.142;22.486;2023-06-04T00:34:54;10.50;;;3.55;;
24030;SDS011;12240;51.142;22.486;2023-06-04T00:37:25;8.68;;;3.50;;
24030;SDS011;12240;51.142;22.486;2023-06-04T00:39:56;9.43;;;3.60;;
24030;SDS011;12240;51.142;22.486;2023-06-04T00:42:24;10.77;;;3.78;;
24030;SDS011;12240;51.142;22.486;2023-06-04T00:44:53;8.13;;;3.50;;
24030;SDS011;12240;51.142;22.486;2023-06-04T00:47:25;10.55;;;3.72;;
24030;SDS011;12240;51.142;22.486;2023-06-04T00:49:53;9.82;;;3.92;;
24030;SDS011;12240;51.142;22.486;2023-06-04T00:52:25;10.18;;;3.67;;
24030;SDS011;12240;51.142;22.486;2023-06-04T00:54:54;9.27;;;3.72;;
24030;SDS011;12240;51.142;22.486;2023-06-04T00:57:22;12.38;;;3.80;;
24030;SDS011;12240;51.142;22.486;2023-06-04T00:59:50;9.07;;;3.67;;
24030;SDS011;12240;51.142;22.486;2023-06-04T01:02:20;10.98;;;3.80;;
24030;SDS011;12240;51.142;22.486;2023-06-04T01:07:53;10.18;;;3.38;;
24030;SDS011;12240;51.142;22.486;2023-06-04T01:10:21;14.50;;;4.07;;
24030;SDS011;12240;51.142;22.486;2023-06-04T01:12:49;12.48;;;3.25;;
24030;SDS011;12240;51.142;22.486;2023-06-04T01:15:18;7.53;;;3.28;;
24030;SDS011;12240;51.142;22.486;2023-06-04T01:17:48;11.60;;;3.25;;
24030;SDS011;12240;51.142;22.486;2023-06-04T01:25:43;7.70;;;3.47;;
24030;SDS011;12240;51.142;22.486;2023-06-04T01:28:16;11.75;;;3.78;;
24030;SDS011;12240;51.142;22.486;2023-06-04T01:30:48;12.27;;;3.75;;
24030;SDS011;12240;51.142;22.486;2023-06-04T01:33:18;9.27;;;3.83;;
24030;SDS011;12240;51.142;22.486;2023-06-04T01:35:48;8.00;;;3.45;;
24030;SDS011;12240;51.142;22.486;2023-06-04T01:38:17;11.48;;;4.32;;
24030;SDS011;12240;51.142;22.486;2023-06-04T01:40:45;10.30;;;3.40;;
24030;SDS011;12240;51.142;22.486;2023-06-04T01:43:15;8.25;;;3.58;;
24030;SDS011;12240;51.142;22.486;2023-06-04T01:45:43;8.07;;;3.55;;
24030;SDS011;12240;51.142;22.486;2023-06-04T01:48:11;10.00;;;3.55;;
24030;SDS011;12240;51.142;22.486;2023-06-04T01:50:40;8.65;;;3.45;;
24030;SDS011;12240;51.142;22.486;2023-06-04T01:53:08;9.63;;;3.45;;
24030;SDS011;12240;51.142;22.486;2023-06-04T01:55:36;11.48;;;4.05;;
24030;SDS011;12240;51.142;22.486;2023-06-04T01:58:04;8.35;;;3.75;;
24030;SDS011;12240;51.142;22.486;2023-06-04T02:00:34;10.90;;;4.15;;
24030;SDS011;12240;51.142;22.486;2023-06-04T02:03:02;8.82;;;3.80;;
24030;SDS011;12240;51.142;22.486;2023-06-04T02:05:31;13.45;;;4.00;;
24030;SDS011;12240;51.142;22.486;2023-06-04T02:07:59;9.88;;;3.30;;
24030;SDS011;12240;51.142;22.486;2023-06-04T02:10:29;7.25;;;3.00;;
24030;SDS011;12240;51.142;22.486;2023-06-04T02:12:58;9.32;;;3.42;;
24030;SDS011;12240;51.142;22.486;2023-06-04T02:15:32;8.32;;;3.47;;
24030;SDS011;12240;51.142;22.486;2023-06-04T02:18:11;8.40;;;3.72;;
24030;SDS011;12240;51.142;22.486;2023-06-04T02:20:45;12.65;;;3.72;;
24030;SDS011;12240;51.142;22.486;2023-06-04T02:23:14;6.32;;;3.05;;
24030;SDS011;12240;51.142;22.486;2023-06-04T02:25:43;8.13;;;3.47;;
24030;SDS011;12240;51.142;22.486;2023-06-04T02:28:13;11.70;;;3.45;;
24030;SDS011;12240;51.142;22.486;2023-06-04T02:30:41;11.23;;;3.53;;
24030;SDS011;12240;51.142;22.486;2023-06-04T02:33:12;9.75;;;3.85;;
24030;SDS011;12240;51.142;22.486;2023-06-04T02:35:42;9.25;;;3.65;;
24030;SDS011;12240;51.142;22.486;2023-06-04T02:38:12;10.55;;;3.60;;
24030;SDS011;12240;51.142;22.486;2023-06-04T02:40:41;15.30;;;3.95;;
24030;SDS011;12240;51.142;22.486;2023-06-04T02:43:10;10.93;;;3.80;;
24030;SDS011;12240;51.142;22.486;2023-06-04T02:45:39;11.35;;;4.60;;
24030;SDS011;12240;51.142;22.486;2023-06-04T02:48:07;13.88;;;3.95;;
24030;SDS011;12240;51.142;22.486;2023-06-04T02:50:35;10.57;;;3.78;;
24030;SDS011;12240;51.142;22.486;2023-06-04T02:53:03;10.77;;;3.70;;
24030;SDS011;12240;51.142;22.486;2023-06-04T02:55:31;10.60;;;3.85;;
24030;SDS011;12240;51.142;22.486;2023-06-04T02:58:00;9.18;;;3.50;;
24030;SDS011;12240;51.142;22.486;2023-06-04T03:00:29;10.50;;;3.90;;
24030;SDS011;12240;51.142;22.486;2023-06-04T03:02:58;14.57;;;4.10;;
24030;SDS011;12240;51.142;22.486;2023-06-04T03:05:30;12.38;;;3.78;;
24030;SDS011;12240;51.142;22.486;2023-06-04T03:08:00;10.70;;;3.78;;
24030;SDS011;12240;51.142;22.486;2023-06-04T03:10:30;10.52;;;3.85;;
24030;SDS011;12240;51.142;22.486;2023-06-04T03:12:58;11.73;;;3.75;;
24030;SDS011;12240;51.142;22.486;2023-06-04T03:15:27;12.30;;;4.05;;
24030;SDS011;12240;51.142;22.486;2023-06-04T03:17:55;18.92;;;4.85;;
24030;SDS011;12240;51.142;22.486;2023-06-04T03:20:24;18.30;;;4.70;;
24030;SDS011;12240;51.142;22.486;2023-06-04T03:22:52;11.20;;;3.83;;
24030;SDS011;12240;51.142;22.486;2023-06-04T03:25:22;12.75;;;3.58;;
24030;SDS011;12240;51.142;22.486;2023-06-04T03:27:50;10.80;;;3.88;;
24030;SDS011;12240;51.142;22.486;2023-06-04T03:30:18;14.40;;;4.13;;
24030;SDS011;12240;51.142;22.486;2023-06-04T03:32:56;13.02;;;3.95;;
24030;SDS011;12240;51.142;22.486;2023-06-04T03:35:25;6.78;;;3.63;;
24030;SDS011;12240;51.142;22.486;2023-06-04T03:37:53;9.32;;;3.38;;
24030;SDS011;12240;51.142;22.486;2023-06-04T03:40:22;14.48;;;4.05;;
24030;SDS011;12240;51.142;22.486;2023-06-04T03:42:51;9.40;;;3.38;;
24030;SDS011;12240;51.142;22.486;2023-06-04T03:45:21;9.80;;;3.95;;
24030;SDS011;12240;51.142;22.486;2023-06-04T03:47:49;6.40;;;2.65;;
24030;SDS011;12240;51.142;22.486;2023-06-04T03:50:18;8.95;;;3.13;;
24030;SDS011;12240;51.142;22.486;2023-06-04T03:52:48;6.70;;;3.25;;
24030;SDS011;12240;51.142;22.486;2023-06-04T03:55:17;11.18;;;3.58;;
24030;SDS011;12240;51.142;22.486;2023-06-04T03:57:48;9.40;;;3.05;;
24030;SDS011;12240;51.142;22.486;2023-06-04T04:00:17;8.63;;;3.00;;
24030;SDS011;12240;51.142;22.486;2023-06-04T04:02:50;10.40;;;3.08;;
24030;SDS011;12240;51.142;22.486;2023-06-04T04:05:23;8.32;;;3.08;;
24030;SDS011;12240;51.142;22.486;2023-06-04T04:07:52;8.32;;;2.92;;
24030;SDS011;12240;51.142;22.486;2023-06-04T04:10:24;10.27;;;2.60;;
24030;SDS011;12240;51.142;22.486;2023-06-04T04:12:52;9.13;;;2.50;;
24030;SDS011;12240;51.142;22.486;2023-06-04T04:15:23;7.82;;;2.72;;
24030;SDS011;12240;51.142;22.486;2023-06-04T04:17:52;7.63;;;2.70;;
24030;SDS011;12240;51.142;22.486;2023-06-04T04:20:22;7.93;;;2.85;;
24030;SDS011;12240;51.142;22.486;2023-06-04T04:22:55;13.68;;;4.15;;
24030;SDS011;12240;51.142;22.486;2023-06-04T04:25:25;6.75;;;3.03;;
24030;SDS011;12240;51.142;22.486;2023-06-04T04:27:54;5.93;;;2.22;;
24030;SDS011;12240;51.142;22.486;2023-06-04T04:30:25;8.13;;;2.70;;
24030;SDS011;12240;51.142;22.486;2023-06-04T04:32:56;9.15;;;2.65;;
24030;SDS011;12240;51.142;22.486;2023-06-04T04:35:31;7.28;;;2.50;;
24030;SDS011;12240;51.142;22.486;2023-06-04T04:38:01;6.32;;;2.50;;
24030;SDS011;12240;51.142;22.486;2023-06-04T04:40:37;9.50;;;2.45;;
24030;SDS011;12240;51.142;22.486;2023-06-04T04:43:08;8.07;;;2.65;;
24030;SDS011;12240;51.142;22.486;2023-06-04T04:45:37;7.03;;;2.38;;
24030;SDS011;12240;51.142;22.486;2023-06-04T04:48:07;6.97;;;2.35;;
24030;SDS011;12240;51.142;22.486;2023-06-04T04:50:35;10.60;;;3.28;;
24030;SDS011;12240;51.142;22.486;2023-06-04T04:53:05;6.47;;;2.20;;
24030;SDS011;12240;51.142;22.486;2023-06-04T04:55:35;5.60;;;2.10;;
24030;SDS011;12240;51.142;22.486;2023-06-04T04:58:03;4.47;;;2.17;;
24030;SDS011;12240;51.142;22.486;2023-06-04T05:00:32;4.97;;;2.40;;
24030;SDS011;12240;51.142;22.486;2023-06-04T05:03:01;7.65;;;2.42;;
24030;SDS011;12240;51.142;22.486;2023-06-04T05:05:30;5.38;;;2.45;;
24030;SDS011;12240;51.142;22.486;2023-06-04T05:08:01;3.13;;;2.00;;
24030;SDS011;12240;51.142;22.486;2023-06-04T05:10:34;7.75;;;2.55;;
24030;SDS011;12240;51.142;22.486;2023-06-04T05:13:07;4.35;;;1.90;;
24030;SDS011;12240;51.142;22.486;2023-06-04T05:15:42;4.13;;;2.15;;
24030;SDS011;12240;51.142;22.486;2023-06-04T05:18:15;5.53;;;2.30;;
24030;SDS011;12240;51.142;22.486;2023-06-04T05:20:43;5.93;;;2.42;;
24030;SDS011;12240;51.142;22.486;2023-06-04T05:23:13;4.05;;;1.88;;
24030;SDS011;12240;51.142;22.486;2023-06-04T05:25:43;4.57;;;1.92;;
24030;SDS011;12240;51.142;22.486;2023-06-04T05:28:12;6.18;;;2.15;;
24030;SDS011;12240;51.142;22.486;2023-06-04T05:30:41;8.15;;;2.17;;
24030;SDS011;12240;51.142;22.486;2023-06-04T05:33:12;7.00;;;2.20;;
24030;SDS011;12240;51.142;22.486;2023-06-04T05:35:57;6.38;;;1.70;;
24030;SDS011;12240;51.142;22.486;2023-06-04T05:38:28;5.25;;;1.67;;
24030;SDS011;12240;51.142;22.486;2023-06-04T05:41:03;4.90;;;1.98;;
24030;SDS011;12240;51.142;22.486;2023-06-04T05:43:35;5.05;;;1.88;;
24030;SDS011;12240;51.142;22.486;2023-06-04T05:46:04;2.97;;;1.55;;
24030;SDS011;12240;51.142;22.486;2023-06-04T05:48:34;4.53;;;1.70;;
24030;SDS011;12240;51.142;22.486;2023-06-04T05:51:03;3.55;;;1.63;;
24030;SDS011;12240;51.142;22.486;2023-06-04T05:53:32;4.85;;;1.90;;
24030;SDS011;12240;51.142;22.486;2023-06-04T05:56:01;5.47;;;1.65;;
24030;SDS011;12240;51.142;22.486;2023-06-04T05:58:30;5.32;;;1.60;;
24030;SDS011;12240;51.142;22.486;2023-06-04T06:01:01;5.63;;;1.67;;
24030;SDS011;12240;51.142;22.486;2023-06-04T06:03:30;4.03;;;1.55;;
24030;SDS011;12240;51.142;22.486;2023-06-04T06:06:00;4.20;;;1.58;;
24030;SDS011;12240;51.142;22.486;2023-06-04T06:08:29;7.40;;;1.40;;
24030;SDS011;12240;51.142;22.486;2023-06-04T06:10:57;2.85;;;1.20;;
24030;SDS011;12240;51.142;22.486;2023-06-04T06:13:25;6.18;;;1.20;;
24030;SDS011;12240;51.142;22.486;2023-06-04T06:15:55;3.88;;;0.90;;
24030;SDS011;12240;51.142;22.486;2023-06-04T06:18:24;1.85;;;0.90;;
24030;SDS011;12240;51.142;22.486;2023-06-04T06:20:52;2.35;;;1.10;;
24030;SDS011;12240;51.142;22.486;2023-06-04T06:23:22;5.93;;;1.10;;
24030;SDS011;12240;51.142;22.486;2023-06-04T06:25:52;2.95;;;1.08;;
24030;SDS011;12240;51.142;22.486;2023-06-04T06:28:24;4.35;;;0.90;;
24030;SDS011;12240;51.142;22.486;2023-06-04T06:30:53;1.90;;;1.00;;
24030;SDS011;12240;51.142;22.486;2023-06-04T06:33:22;4.18;;;1.02;;
24030;SDS011;12240;51.142;22.486;2023-06-04T06:35:50;4.63;;;1.00;;
24030;SDS011;12240;51.142;22.486;2023-06-04T06:38:19;2.00;;;0.98;;
24030;SDS011;12240;51.142;22.486;2023-06-04T06:40:47;1.40;;;0.82;;
24030;SDS011;12240;51.142;22.486;2023-06-04T06:43:15;2.78;;;1.00;;
24030;SDS011;12240;51.142;22.486;2023-06-04T06:45:44;2.83;;;0.90;;
24030;SDS011;12240;51.142;22.486;2023-06-04T06:48:13;2.80;;;1.02;;
24030;SDS011;12240;51.142;22.486;2023-06-04T06:50:41;4.10;;;0.90;;
24030;SDS011;12240;51.142;22.486;2023-06-04T06:53:09;4.70;;;1.15;;
24030;SDS011;12240;51.142;22.486;2023-06-04T06:55:38;4.10;;;1.08;;
24030;SDS011;12240;51.142;22.486;2023-06-04T06:58:06;2.67;;;1.00;;
24030;SDS011;12240;51.142;22.486;2023-06-04T07:00:35;2.20;;;0.90;;
24030;SDS011;12240;51.142;22.486;2023-06-04T07:03:03;2.13;;;1.10;;
24030;SDS011;12240;51.142;22.486;2023-06-04T07:05:31;2.22;;;1.00;;
24030;SDS011;12240;51.142;22.486;2023-06-04T07:07:59;1.77;;;1.15;;
24030;SDS011;12240;51.142;22.486;2023-06-04T07:10:29;1.50;;;0.80;;
24030;SDS011;12240;51.142;22.486;2023-06-04T07:12:57;2.47;;;0.88;;
24030;SDS011;12240;51.142;22.486;2023-06-04T07:15:26;1.92;;;0.80;;
24030;SDS011;12240;51.142;22.486;2023-06-04T07:17:55;6.85;;;1.17;;
24030;SDS011;12240;51.142;22.486;2023-06-04T07:20:23;4.35;;;0.73;;
24030;SDS011;12240;51.142;22.486;2023-06-04T07:22:51;3.15;;;1.00;;
24030;SDS011;12240;51.142;22.486;2023-06-04T07:25:19;2.65;;;0.85;;
24030;SDS011;12240;51.142;22.486;2023-06-04T07:27:49;2.90;;;0.85;;
24030;SDS011;12240;51.142;22.486;2023-06-04T07:30:18;4.40;;;1.05;;
24030;SDS011;12240;51.142;22.486;2023-06-04T07:32:50;3.72;;;1.00;;
24030;SDS011;12240;51.142;22.486;2023-06-04T07:35:18;4.03;;;1.13;;
24030;SDS011;12240;51.142;22.486;2023-06-04T07:37:47;1.40;;;0.82;;
24030;SDS011;12240;51.142;22.486;2023-06-04T07:40:17;5.65;;;0.85;;
24030;SDS011;12240;51.142;22.486;2023-06-04T07:42:45;2.97;;;1.10;;
24030;SDS011;12240;51.142;22.486;2023-06-04T07:45:15;1.25;;;0.75;;
24030;SDS011;12240;51.142;22.486;2023-06-04T07:47:43;2.85;;;1.00;;
24030;SDS011;12240;51.142;22.486;2023-06-04T07:50:11;2.50;;;0.70;;
24030;SDS011;12240;51.142;22.486;2023-06-04T07:52:40;5.38;;;1.00;;
24030;SDS011;12240;51.142;22.486;2023-06-04T07:55:08;1.15;;;0.73;;
24030;SDS011;12240;51.142;22.486;2023-06-04T07:57:37;1.75;;;1.00;;
24030;SDS011;12240;51.142;22.486;2023-06-04T08:00:06;2.40;;;1.00;;
24030;SDS011;12240;51.142;22.486;2023-06-04T08:02:38;3.03;;;0.98;;
24030;SDS011;12240;51.142;22.486;2023-06-04T08:05:07;3.00;;;0.80;;
24030;SDS011;12240;51.142;22.486;2023-06-04T08:07:35;4.82;;;1.40;;
24030;SDS011;12240;51.142;22.486;2023-06-04T08:10:04;2.78;;;1.02;;
24030;SDS011;12240;51.142;22.486;2023-06-04T08:12:34;4.15;;;1.05;;
24030;SDS011;12240;51.142;22.486;2023-06-04T08:15:02;4.28;;;0.80;;
24030;SDS011;12240;51.142;22.486;2023-06-04T08:17:31;6.22;;;1.00;;
24030;SDS011;12240;51.142;22.486;2023-06-04T08:20:00;2.30;;;0.88;;
24030;SDS011;12240;51.142;22.486;2023-06-04T08:22:28;2.35;;;1.10;;
24030;SDS011;12240;51.142;22.486;2023-06-04T08:24:56;3.85;;;1.02;;
24030;SDS011;12240;51.142;22.486;2023-06-04T08:27:25;4.35;;;0.95;;
24030;SDS011;12240;51.142;22.486;2023-06-04T08:29:53;2.83;;;1.05;;
24030;SDS011;12240;51.142;22.486;2023-06-04T08:32:22;2.10;;;0.98;;
24030;SDS011;12240;51.142;22.486;2023-06-04T08:34:51;4.95;;;1.27;;
24030;SDS011;12240;51.142;22.486;2023-06-04T08:37:19;1.95;;;1.17;;
24030;SDS011;12240;51.142;22.486;2023-06-04T08:39:47;4.10;;;1.20;;
24030;SDS011;12240;51.142;22.486;2023-06-04T08:42:38;2.42;;;1.00;;
24030;SDS011;12240;51.142;22.486;2023-06-04T08:45:12;4.82;;;1.10;;
24030;SDS011;12240;51.142;22.486;2023-06-04T08:47:43;2.55;;;0.98;;
24030;SDS011;12240;51.142;22.486;2023-06-04T08:50:16;3.17;;;1.10;;
24030;SDS011;12240;51.142;22.486;2023-06-04T08:52:47;3.15;;;1.02;;
24030;SDS011;12240;51.142;22.486;2023-06-04T08:55:15;2.30;;;0.90;;
24030;SDS011;12240;51.142;22.486;2023-06-04T08:57:45;2.33;;;0.77;;
24030;SDS011;12240;51.142;22.486;2023-06-04T09:00:15;2.13;;;1.00;;
24030;SDS011;12240;51.142;22.486;2023-06-04T09:02:44;3.05;;;1.10;;
24030;SDS011;12240;51.142;22.486;2023-06-04T09:05:19;1.88;;;0.80;;
24030;SDS011;12240;51.142;22.486;2023-06-04T09:07:51;2.83;;;0.90;;
24030;SDS011;12240;51.142;22.486;2023-06-04T09:10:24;2.00;;;1.00;;
24030;SDS011;12240;51.142;22.486;2023-06-04T09:12:53;1.80;;;0.73;;
24030;SDS011;12240;51.142;22.486;2023-06-04T09:15:25;2.75;;;0.75;;
24030;SDS011;12240;51.142;22.486;2023-06-04T09:17:53;3.92;;;0.80;;
24030;SDS011;12240;51.142;22.486;2023-06-04T09:20:22;3.30;;;0.93;;
24030;SDS011;12240;51.142;22.486;2023-06-04T09:22:52;3.65;;;1.02;;
24030;SDS011;12240;51.142;22.486;2023-06-04T09:25:24;2.03;;;0.80;;
24030;SDS011;12240;51.142;22.486;2023-06-04T09:27:56;2.25;;;0.80;;
24030;SDS011;12240;51.142;22.486;2023-06-04T09:30:33;1.05;;;0.75;;
24030;SDS011;12240;51.142;22.486;2023-06-04T09:33:06;1.88;;;0.82;;
24030;SDS011;12240;51.142;22.486;2023-06-04T09:35:35;1.23;;;0.70;;
24030;SDS011;12240;51.142;22.486;2023-06-04T09:38:04;2.90;;;0.70;;
24030;SDS011;12240;51.142;22.486;2023-06-04T09:40:37;3.13;;;0.80;;
24030;SDS011;12240;51.142;22.486;2023-06-04T09:43:05;2.58;;;0.90;;
24030;SDS011;12240;51.142;22.486;2023-06-04T09:45:35;1.60;;;0.85;;
24030;SDS011;12240;51.142;22.486;2023-06-04T09:48:03;5.05;;;0.90;;
24030;SDS011;12240;51.142;22.486;2023-06-04T09:50:36;2.72;;;0.75;;
24030;SDS011;12240;51.142;22.486;2023-06-04T09:53:17;5.90;;;0.70;;
24030;SDS011;12240;51.142;22.486;2023-06-04T09:55:57;2.08;;;0.85;;
24030;SDS011;12240;51.142;22.486;2023-06-04T09:58:26;3.33;;;0.88;;
24030;SDS011;12240;51.142;22.486;2023-06-04T10:00:56;2.92;;;0.88;;
24030;SDS011;12240;51.142;22.486;2023-06-04T10:03:36;1.60;;;0.70;;
24030;SDS011;12240;51.142;22.486;2023-06-04T10:06:07;7.53;;;1.10;;
24030;SDS011;12240;51.142;22.486;2023-06-04T10:08:37;2.78;;;1.00;;
24030;SDS011;12240;51.142;22.486;2023-06-04T10:11:10;3.22;;;0.77;;
24030;SDS011;12240;51.142;22.486;2023-06-04T10:13:48;4.47;;;0.80;;
24030;SDS011;12240;51.142;22.486;2023-06-04T10:16:37;2.63;;;0.90;;
24030;SDS011;12240;51.142;22.486;2023-06-04T10:19:07;1.83;;;0.70;;
24030;SDS011;12240;51.142;22.486;2023-06-04T10:21:35;8.38;;;0.82;;
24030;SDS011;12240;51.142;22.486;2023-06-04T10:24:06;1.40;;;0.88;;
24030;SDS011;12240;51.142;22.486;2023-06-04T10:26:35;2.95;;;0.80;;
24030;SDS011;12240;51.142;22.486;2023-06-04T10:29:07;4.45;;;0.85;;
24030;SDS011;12240;51.142;22.486;2023-06-04T10:31:36;1.50;;;0.88;;
24030;SDS011;12240;51.142;22.486;2023-06-04T10:34:05;2.60;;;0.90;;
24030;SDS011;12240;51.142;22.486;2023-06-04T10:36:42;3.42;;;1.00;;
24030;SDS011;12240;51.142;22.486;2023-06-04T10:39:14;2.42;;;0.90;;
24030;SDS011;12240;51.142;22.486;2023-06-04T10:42:00;2.03;;;0.63;;
24030;SDS011;12240;51.142;22.486;2023-06-04T10:44:30;2.75;;;0.95;;
24030;SDS011;12240;51.142;22.486;2023-06-04T10:47:00;1.38;;;0.90;;
24030;SDS011;12240;51.142;22.486;2023-06-04T10:49:29;1.63;;;0.80;;
24030;SDS011;12240;51.142;22.486;2023-06-04T10:52:09;3.97;;;0.68;;
24030;SDS011;12240;51.142;22.486;2023-06-04T10:54:38;4.05;;;1.10;;
24030;SDS011;12240;51.142;22.486;2023-06-04T10:57:15;3.60;;;0.93;;
24030;SDS011;12240;51.142;22.486;2023-06-04T10:59:54;1.77;;;0.82;;
24030;SDS011;12240;51.142;22.486;2023-06-04T11:02:27;5.78;;;0.80;;
24030;SDS011;12240;51.142;22.486;2023-06-04T11:04:59;1.88;;;0.80;;
24030;SDS011;12240;51.142;22.486;2023-06-04T11:07:44;1.85;;;0.90;;
24030;SDS011;12240;51.142;22.486;2023-06-04T11:10:15;3.28;;;0.70;;
24030;SDS011;12240;51.142;22.486;2023-06-04T11:12:45;1.45;;;0.80;;
24030;SDS011;12240;51.142;22.486;2023-06-04T11:15:14;5.35;;;0.85;;
24030;SDS011;12240;51.142;22.486;2023-06-04T11:17:54;2.75;;;0.70;;
24030;SDS011;12240;51.142;22.486;2023-06-04T11:20:26;1.45;;;0.60;;
24030;SDS011;12240;51.142;22.486;2023-06-04T11:22:55;2.45;;;0.80;;
24030;SDS011;12240;51.142;22.486;2023-06-04T11:25:25;3.83;;;0.93;;
24030;SDS011;12240;51.142;22.486;2023-06-04T11:27:56;2.05;;;0.80;;
24030;SDS011;12240;51.142;22.486;2023-06-04T11:30:25;3.08;;;0.70;;
24030;SDS011;12240;51.142;22.486;2023-06-04T11:33:01;3.03;;;0.80;;
24030;SDS011;12240;51.142;22.486;2023-06-04T11:35:38;4.78;;;0.90;;
24030;SDS011;12240;51.142;22.486;2023-06-04T11:38:10;2.22;;;0.70;;
24030;SDS011;12240;51.142;22.486;2023-06-04T11:40:38;2.80;;;1.00;;
24030;SDS011;12240;51.142;22.486;2023-06-04T11:43:08;2.00;;;0.90;;
24030;SDS011;12240;51.142;22.486;2023-06-04T11:45:39;4.93;;;0.95;;
24030;SDS011;12240;51.142;22.486;2023-06-04T11:48:07;3.92;;;1.00;;
24030;SDS011;12240;51.142;22.486;2023-06-04T11:53:09;3.05;;;0.90;;
24030;SDS011;12240;51.142;22.486;2023-06-04T11:55:38;1.97;;;0.73;;
24030;SDS011;12240;51.142;22.486;2023-06-04T11:58:07;4.22;;;1.10;;
24030;SDS011;12240;51.142;22.486;2023-06-04T12:00:36;6.22;;;0.90;;
24030;SDS011;12240;51.142;22.486;2023-06-04T12:03:05;2.83;;;0.80;;
24030;SDS011;12240;51.142;22.486;2023-06-04T12:05:33;2.08;;;0.88;;
24030;SDS011;12240;51.142;22.486;2023-06-04T12:08:05;4.40;;;0.70;;
24030;SDS011;12240;51.142;22.486;2023-06-04T12:10:41;1.92;;;0.60;;
24030;SDS011;12240;51.142;22.486;2023-06-04T12:13:11;3.70;;;0.82;;
24030;SDS011;12240;51.142;22.486;2023-06-04T12:15:40;9.25;;;0.88;;
24030;SDS011;12240;51.142;22.486;2023-06-04T12:18:09;4.40;;;1.00;;
24030;SDS011;12240;51.142;22.486;2023-06-04T12:20:38;1.55;;;0.70;;
24030;SDS011;12240;51.142;22.486;2023-06-04T12:23:18;6.93;;;1.08;;
24030;SDS011;12240;51.142;22.486;2023-06-04T12:25:51;3.90;;;0.82;;
24030;SDS011;12240;51.142;22.486;2023-06-04T12:28:20;6.07;;;1.00;;
24030;SDS011;12240;51.142;22.486;2023-06-04T12:30:48;4.13;;;0.90;;
24030;SDS011;12240;51.142;22.486;2023-06-04T12:33:16;3.65;;;0.88;;
24030;SDS011;12240;51.142;22.486;2023-06-04T12:35:45;3.47;;;0.80;;
24030;SDS011;12240;51.142;22.486;2023-06-04T12:38:13;2.38;;;0.90;;
24030;SDS011;12240;51.142;22.486;2023-06-04T12:40:41;3.33;;;0.90;;
24030;SDS011;12240;51.142;22.486;2023-06-04T12:43:10;2.65;;;0.70;;
24030;SDS011;12240;51.142;22.486;2023-06-04T12:45:38;2.97;;;0.70;;
24030;SDS011;12240;51.142;22.486;2023-06-04T12:48:06;4.55;;;0.80;;
24030;SDS011;12240;51.142;22.486;2023-06-04T12:50:36;3.05;;;0.80;;
24030;SDS011;12240;51.142;22.486;2023-06-04T12:53:04;1.52;;;0.50;;
24030;SDS011;12240;51.142;22.486;2023-06-04T12:55:32;5.32;;;0.90;;
24030;SDS011;12240;51.142;22.486;2023-06-04T12:58:02;2.67;;;0.90;;
24030;SDS011;12240;51.142;22.486;2023-06-04T13:00:30;1.65;;;0.70;;
24030;SDS011;12240;51.142;22.486;2023-06-04T13:02:58;3.28;;;0.70;;
24030;SDS011;12240;51.142;22.486;2023-06-04T13:05:28;3.90;;;0.85;;
24030;SDS011;12240;51.142;22.486;2023-06-04T13:07:56;4.97;;;0.80;;
24030;SDS011;12240;51.142;22.486;2023-06-04T13:10:25;3.78;;;0.70;;
24030;SDS011;12240;51.142;22.486;2023-06-04T13:12:54;2.20;;;0.95;;
24030;SDS011;12240;51.142;22.486;2023-06-04T13:15:22;2.58;;;0.73;;
24030;SDS011;12240;51.142;22.486;2023-06-04T13:17:50;1.60;;;0.90;;
24030;SDS011;12240;51.142;22.486;2023-06-04T13:20:19;2.58;;;0.80;;
24030;SDS011;12240;51.142;22.486;2023-06-04T13:22:47;2.05;;;0.90;;
24030;SDS011;12240;51.142;22.486;2023-06-04T13:25:15;3.97;;;0.60;;
24030;SDS011;12240;51.142;22.486;2023-06-04T13:27:44;2.72;;;0.98;;
24030;SDS011;12240;51.142;22.486;2023-06-04T13:30:12;3.38;;;0.88;;
24030;SDS011;12240;51.142;22.486;2023-06-04T13:32:41;2.03;;;0.80;;
24030;SDS011;12240;51.142;22.486;2023-06-04T13:35:10;6.43;;;1.00;;
24030;SDS011;12240;51.142;22.486;2023-06-04T13:37:38;1.30;;;0.70;;
24030;SDS011;12240;51.142;22.486;2023-06-04T13:40:06;1.58;;;0.80;;
24030;SDS011;12240;51.142;22.486;2023-06-04T13:42:35;1.38;;;0.88;;
24030;SDS011;12240;51.142;22.486;2023-06-04T13:45:03;2.13;;;0.82;;
24030;SDS011;12240;51.142;22.486;2023-06-04T13:47:33;3.58;;;0.70;;
24030;SDS011;12240;51.142;22.486;2023-06-04T13:50:01;3.83;;;0.80;;
24030;SDS011;12240;51.142;22.486;2023-06-04T13:52:31;1.27;;;0.88;;
24030;SDS011;12240;51.142;22.486;2023-06-04T13:54:59;2.00;;;0.70;;
24030;SDS011;12240;51.142;22.486;2023-06-04T13:57:27;2.30;;;0.70;;
24030;SDS011;12240;51.142;22.486;2023-06-04T13:59:56;1.40;;;0.68;;
24030;SDS011;12240;51.142;22.486;2023-06-04T14:02:24;0.80;;;0.60;;
24030;SDS011;12240;51.142;22.486;2023-06-04T14:04:53;0.88;;;0.60;;
24030;SDS011;12240;51.142;22.486;2023-06-04T14:07:22;0.80;;;0.60;;
24030;SDS011;12240;51.142;22.486;2023-06-04T14:09:50;5.07;;;0.95;;
24030;SDS011;12240;51.142;22.486;2023-06-04T14:12:22;1.73;;;0.50;;
24030;SDS011;12240;51.142;22.486;2023-06-04T14:14:51;1.17;;;0.60;;
24030;SDS011;12240;51.142;22.486;2023-06-04T14:17:20;1.85;;;0.68;;
24030;SDS011;12240;51.142;22.486;2023-06-04T14:19:48;1.85;;;0.77;;
24030;SDS011;12240;51.142;22.486;2023-06-04T14:22:16;2.97;;;1.40;;
24030;SDS011;12240;51.142;22.486;2023-06-04T14:24:45;1.55;;;0.70;;
24030;SDS011;12240;51.142;22.486;2023-06-04T14:27:13;2.20;;;0.80;;
24030;SDS011;12240;51.142;22.486;2023-06-04T14:29:42;1.50;;;0.75;;
24030;SDS011;12240;51.142;22.486;2023-06-04T14:32:10;3.60;;;0.80;;
24030;SDS011;12240;51.142;22.486;2023-06-04T14:34:38;5.00;;;0.80;;
24030;SDS011;12240;51.142;22.486;2023-06-04T14:37:06;1.17;;;0.70;;
24030;SDS011;12240;51.142;22.486;2023-06-04T14:39:36;2.17;;;0.88;;
24030;SDS011;12240;51.142;22.486;2023-06-04T14:42:05;2.17;;;0.80;;
24030;SDS011;12240;51.142;22.486;2023-06-04T14:44:33;2.25;;;0.80;;
24030;SDS011;12240;51.142;22.486;2023-06-04T14:47:02;7.28;;;0.80;;
24030;SDS011;12240;51.142;22.486;2023-06-04T14:49:31;3.60;;;0.75;;
24030;SDS011;12240;51.142;22.486;2023-06-04T14:52:00;3.42;;;0.90;;
24030;SDS011;12240;51.142;22.486;2023-06-04T14:54:28;2.10;;;0.77;;
24030;SDS011;12240;51.142;22.486;2023-06-04T14:56:57;1.45;;;0.70;;
24030;SDS011;12240;51.142;22.486;2023-06-04T14:59:25;1.80;;;0.90;;